sensor_id;sensor_type;location;lat;lon;timestamp;P1;durP1;ratioP1;P2;durP2;ratioP2
12059;SDS011;6091;51.432;6.880;2022-08-01T00:00:46;1.52;;;1.42;;
12059;SDS011;6091;51.432;6.880;2022-08-01T00:03:13;1.50;;;1.40;;
12059;SDS011;6091;51.432;6.880;2022-08-01T00:05:40;1.63;;;1.50;;
12059;SDS011;6091;51.432;6.880;2022-08-01T00:08:09;1.63;;;1.52;;
12059;SDS011;6091;51.432;6.880;2022-08-01T00:10:36;1.73;;;1.63;;
12059;SDS011;6091;51.432;6.880;2022-08-01T00:13:03;2.53;;;1.80;;
12059;SDS011;6091;51.432;6.880;2022-08-01T00:15:30;1.65;;;1.52;;
12059;SDS011;6091;51.432;6.880;2022-08-01T00:17:58;1.70;;;1.60;;
12059;SDS011;6091;51.432;6.880;2022-08-01T00:20:25;1.92;;;1.70;;
12059;SDS011;6091;51.432;6.880;2022-08-01T00:22:52;2.33;;;1.42;;
12059;SDS011;6091;51.432;6.880;2022-08-01T00:25:19;1.48;;;1.38;;
12059;SDS011;6091;51.432;6.880;2022-08-01T00:27:59;1.60;;;1.50;;
12059;SDS011;6091;51.432;6.880;2022-08-01T00:30:26;1.50;;;1.40;;
12059;SDS011;6091;51.432;6.880;2022-08-01T00:32:53;1.58;;;1.48;;
12059;SDS011;6091;51.432;6.880;2022-08-01T00:35:20;1.50;;;1.40;;
12059;SDS011;6091;51.432;6.880;2022-08-01T00:37:47;2.75;;;1.50;;
12059;SDS011;6091;51.432;6.880;2022-08-01T00:40:14;1.40;;;1.25;;
12059;SDS011;6091;51.432;6.880;2022-08-01T00:42:41;1.98;;;1.80;;
12059;SDS011;6091;51.432;6.880;2022-08-01T00:45:09;1.42;;;1.27;;
12059;SDS011;6091;51.432;6.880;2022-08-01T00:47:38;1.80;;;1.55;;
12059;SDS011;6091;51.432;6.880;2022-08-01T00:50:06;1.50;;;1.40;;
12059;SDS011;6091;51.432;6.880;2022-08-01T00:52:34;1.45;;;1.35;;
12059;SDS011;6091;51.432;6.880;2022-08-01T00:55:02;1.40;;;1.30;;
12059;SDS011;6091;51.432;6.880;2022-08-01T00:57:29;1.67;;;1.48;;
12059;SDS011;6091;51.432;6.880;2022-08-01T01:00:17;1.50;;;1.40;;
12059;SDS011;6091;51.432;6.880;2022-08-01T01:02:52;1.95;;;1.75;;
12059;SDS011;6091;51.432;6.880;2022-08-01T01:05:19;1.67;;;1.58;;
12059;SDS011;6091;51.432;6.880;2022-08-01T01:07:48;1.45;;;1.35;;
12059;SDS011;6091;51.432;6.880;2022-08-01T01:16:30;1.58;;;1.48;;
12059;SDS011;6091;51.432;6.880;2022-08-01T01:19:00;1.60;;;1.50;;
12059;SDS011;6091;51.432;6.880;2022-08-01T01:22:16;1.55;;;1.45;;
12059;SDS011;6091;51.432;6.880;2022-08-01T01:30:44;1.55;;;1.45;;
12059;SDS011;6091;51.432;6.880;2022-08-01T01:33:18;1.40;;;1.30;;
12059;SDS011;6091;51.432;6.880;2022-08-01T01:35:48;1.35;;;1.23;;
12059;SDS011;6091;51.432;6.880;2022-08-01T01:38:24;1.52;;;1.42;;
12059;SDS011;6091;51.432;6.880;2022-08-01T01:40:59;1.67;;;1.50;;
12059;SDS011;6091;51.432;6.880;2022-08-01T01:43:29;1.70;;;1.60;;
12059;SDS011;6091;51.432;6.880;2022-08-01T01:45:59;1.65;;;1.55;;
12059;SDS011;6091;51.432;6.880;2022-08-01T01:48:29;1.95;;;1.50;;
12059;SDS011;6091;51.432;6.880;2022-08-01T01:50:59;1.60;;;1.50;;
12059;SDS011;6091;51.432;6.880;2022-08-01T01:53:28;2.15;;;1.50;;
12059;SDS011;6091;51.432;6.880;2022-08-01T01:55:58;1.70;;;1.60;;
12059;SDS011;6091;51.432;6.880;2022-08-01T01:58:28;1.50;;;1.40;;
12059;SDS011;6091;51.432;6.880;2022-08-01T02:01:00;1.70;;;1.60;;
12059;SDS011;6091;51.432;6.880;2022-08-01T02:03:30;1.83;;;1.50;;
12059;SDS011;6091;51.432;6.880;2022-08-01T02:05:58;2.97;;;2.03;;
12059;SDS011;6091;51.432;6.880;2022-08-01T02:08:28;1.73;;;1.63;;
12059;SDS011;6091;51.432;6.880;2022-08-01T02:11:02;2.50;;;1.70;;
12059;SDS011;6091;51.432;6.880;2022-08-01T02:13:57;1.83;;;1.73;;
12059;SDS011;6091;51.432;6.880;2022-08-01T02:16:29;2.15;;;1.77;;
12059;SDS011;6091;51.432;6.880;2022-08-01T02:19:02;1.92;;;1.80;;
12059;SDS011;6091;51.432;6.880;2022-08-01T02:21:30;1.42;;;1.33;;
12059;SDS011;6091;51.432;6.880;2022-08-01T02:24:03;1.83;;;1.73;;
12059;SDS011;6091;51.432;6.880;2022-08-01T02:26:42;1.65;;;1.55;;
12059;SDS011;6091;51.432;6.880;2022-08-01T02:29:17;2.08;;;1.90;;
12059;SDS011;6091;51.432;6.880;2022-08-01T02:31:56;1.60;;;1.50;;
12059;SDS011;6091;51.432;6.880;2022-08-01T02:34:25;1.70;;;1.60;;
12059;SDS011;6091;51.432;6.880;2022-08-01T02:36:58;1.88;;;1.77;;
12059;SDS011;6091;51.432;6.880;2022-08-01T02:39:29;2.15;;;1.95;;
12059;SDS011;6091;51.432;6.880;2022-08-01T02:41:59;2.30;;;1.70;;
12059;SDS011;6091;51.432;6.880;2022-08-01T02:44:33;1.73;;;1.63;;
12059;SDS011;6091;51.432;6.880;2022-08-01T02:47:05;1.80;;;1.70;;
12059;SDS011;6091;51.432;6.880;2022-08-01T02:49:36;3.20;;;1.73;;
12059;SDS011;6091;51.432;6.880;2022-08-01T02:52:19;1.98;;;1.52;;
12059;SDS011;6091;51.432;6.880;2022-08-01T02:54:51;1.80;;;1.70;;
12059;SDS011;6091;51.432;6.880;2022-08-01T02:57:22;2.30;;;2.10;;
12059;SDS011;6091;51.432;6.880;2022-08-01T03:00:03;2.28;;;2.08;;
12059;SDS011;6091;51.432;6.880;2022-08-01T03:02:32;2.15;;;1.90;;
12059;SDS011;6091;51.432;6.880;2022-08-01T03:05:02;1.70;;;1.60;;
12059;SDS011;6091;51.432;6.880;2022-08-01T03:07:30;2.55;;;1.58;;
12059;SDS011;6091;51.432;6.880;2022-08-01T03:10:05;2.75;;;1.90;;
12059;SDS011;6091;51.432;6.880;2022-08-01T03:12:34;1.80;;;1.70;;
12059;SDS011;6091;51.432;6.880;2022-08-01T03:15:05;1.52;;;1.42;;
12059;SDS011;6091;51.432;6.880;2022-08-01T03:17:35;1.70;;;1.60;;
12059;SDS011;6091;51.432;6.880;2022-08-01T03:20:06;1.75;;;1.65;;
12059;SDS011;6091;51.432;6.880;2022-08-01T03:22:36;2.05;;;1.88;;
12059;SDS011;6091;51.432;6.880;2022-08-01T03:25:06;2.45;;;2.25;;
12059;SDS011;6091;51.432;6.880;2022-08-01T03:27:36;2.22;;;2.10;;
12059;SDS011;6091;51.432;6.880;2022-08-01T03:30:04;2.33;;;2.13;;
12059;SDS011;6091;51.432;6.880;2022-08-01T03:32:32;2.10;;;1.80;;
12059;SDS011;6091;51.432;6.880;2022-08-01T03:35:00;2.60;;;2.28;;
12059;SDS011;6091;51.432;6.880;2022-08-01T03:37:29;2.10;;;2.00;;
12059;SDS011;6091;51.432;6.880;2022-08-01T03:40:26;2.45;;;2.25;;
12059;SDS011;6091;51.432;6.880;2022-08-01T03:43:03;2.05;;;1.95;;
12059;SDS011;6091;51.432;6.880;2022-08-01T03:45:42;2.05;;;1.90;;
12059;SDS011;6091;51.432;6.880;2022-08-01T03:48:18;3.58;;;2.28;;
12059;SDS011;6091;51.432;6.880;2022-08-01T03:50:54;2.25;;;2.10;;
12059;SDS011;6091;51.432;6.880;2022-08-01T03:53:24;2.72;;;2.47;;
12059;SDS011;6091;51.432;6.880;2022-08-01T03:55:56;2.10;;;1.90;;
12059;SDS011;6091;51.432;6.880;2022-08-01T03:58:30;1.98;;;1.88;;
12059;SDS011;6091;51.432;6.880;2022-08-01T04:00:58;2.40;;;2.20;;
12059;SDS011;6091;51.432;6.880;2022-08-01T04:03:25;2.53;;;1.75;;
12059;SDS011;6091;51.432;6.880;2022-08-01T04:05:53;2.30;;;2.10;;
12059;SDS011;6091;51.432;6.880;2022-08-01T04:08:20;1.90;;;1.80;;
12059;SDS011;6091;51.432;6.880;2022-08-01T04:10:55;2.10;;;1.58;;
12059;SDS011;6091;51.432;6.880;2022-08-01T04:13:22;2.38;;;2.17;;
12059;SDS011;6091;51.432;6.880;2022-08-01T04:15:48;1.73;;;1.63;;
12059;SDS011;6091;51.432;6.880;2022-08-01T04:18:15;2.25;;;2.10;;
12059;SDS011;6091;51.432;6.880;2022-08-01T04:20:42;2.50;;;2.30;;
12059;SDS011;6091;51.432;6.880;2022-08-01T04:23:09;2.00;;;1.80;;
12059;SDS011;6091;51.432;6.880;2022-08-01T04:25:38;2.40;;;2.13;;
12059;SDS011;6091;51.432;6.880;2022-08-01T04:28:08;1.73;;;1.63;;
12059;SDS011;6091;51.432;6.880;2022-08-01T04:30:43;2.33;;;2.03;;
12059;SDS011;6091;51.432;6.880;2022-08-01T04:33:14;2.63;;;2.20;;
12059;SDS011;6091;51.432;6.880;2022-08-01T04:35:44;2.25;;;1.92;;
12059;SDS011;6091;51.432;6.880;2022-08-01T04:38:30;1.73;;;1.63;;
12059;SDS011;6091;51.432;6.880;2022-08-01T04:41:03;1.65;;;1.55;;
12059;SDS011;6091;51.432;6.880;2022-08-01T04:43:35;2.13;;;2.00;;
12059;SDS011;6091;51.432;6.880;2022-08-01T04:46:03;2.00;;;1.80;;
12059;SDS011;6091;51.432;6.880;2022-08-01T04:48:34;2.47;;;2.22;;
12059;SDS011;6091;51.432;6.880;2022-08-01T04:51:06;2.42;;;1.77;;
12059;SDS011;6091;51.432;6.880;2022-08-01T04:53:42;2.15;;;2.05;;
12059;SDS011;6091;51.432;6.880;2022-08-01T04:56:10;1.77;;;1.67;;
12059;SDS011;6091;51.432;6.880;2022-08-01T04:58:40;2.30;;;2.10;;
12059;SDS011;6091;51.432;6.880;2022-08-01T05:01:08;1.70;;;1.60;;
12059;SDS011;6091;51.432;6.880;2022-08-01T05:03:36;2.55;;;2.35;;
12059;SDS011;6091;51.432;6.880;2022-08-01T05:06:04;2.30;;;2.10;;
12059;SDS011;6091;51.432;6.880;2022-08-01T05:08:32;2.00;;;1.90;;
12059;SDS011;6091;51.432;6.880;2022-08-01T05:10:59;2.03;;;1.83;;
12059;SDS011;6091;51.432;6.880;2022-08-01T05:13:27;2.20;;;2.08;;
12059;SDS011;6091;51.432;6.880;2022-08-01T05:15:54;2.08;;;1.98;;
12059;SDS011;6091;51.432;6.880;2022-08-01T05:18:21;2.75;;;2.05;;
12059;SDS011;6091;51.432;6.880;2022-08-01T05:20:53;1.95;;;1.85;;
12059;SDS011;6091;51.432;6.880;2022-08-01T05:23:20;2.58;;;2.38;;
12059;SDS011;6091;51.432;6.880;2022-08-01T05:26:07;2.35;;;2.15;;
12059;SDS011;6091;51.432;6.880;2022-08-01T05:28:36;2.92;;;2.20;;
12059;SDS011;6091;51.432;6.880;2022-08-01T05:31:03;2.40;;;2.22;;
12059;SDS011;6091;51.432;6.880;2022-08-01T05:33:30;2.40;;;2.20;;
12059;SDS011;6091;51.432;6.880;2022-08-01T05:35:57;2.30;;;2.10;;
12059;SDS011;6091;51.432;6.880;2022-08-01T05:38:24;2.13;;;1.92;;
12059;SDS011;6091;51.432;6.880;2022-08-01T05:40:51;2.60;;;2.38;;
12059;SDS011;6091;51.432;6.880;2022-08-01T05:43:18;2.63;;;2.42;;
12059;SDS011;6091;51.432;6.880;2022-08-01T05:45:46;4.80;;;3.22;;
12059;SDS011;6091;51.432;6.880;2022-08-01T05:48:14;2.85;;;2.50;;
12059;SDS011;6091;51.432;6.880;2022-08-01T05:50:41;2.65;;;2.33;;
12059;SDS011;6091;51.432;6.880;2022-08-01T05:53:08;3.30;;;3.10;;
12059;SDS011;6091;51.432;6.880;2022-08-01T05:55:35;3.60;;;3.30;;
12059;SDS011;6091;51.432;6.880;2022-08-01T05:58:02;3.42;;;3.20;;
12059;SDS011;6091;51.432;6.880;2022-08-01T06:00:29;4.65;;;3.70;;
12059;SDS011;6091;51.432;6.880;2022-08-01T06:02:56;3.63;;;3.33;;
12059;SDS011;6091;51.432;6.880;2022-08-01T06:05:23;5.78;;;3.78;;
12059;SDS011;6091;51.432;6.880;2022-08-01T06:07:50;3.92;;;3.40;;
12059;SDS011;6091;51.432;6.880;2022-08-01T06:10:17;2.90;;;2.60;;
12059;SDS011;6091;51.432;6.880;2022-08-01T06:12:44;3.03;;;2.78;;
12059;SDS011;6091;51.432;6.880;2022-08-01T06:15:11;3.85;;;3.55;;
12059;SDS011;6091;51.432;6.880;2022-08-01T06:17:38;3.63;;;3.33;;
12059;SDS011;6091;51.432;6.880;2022-08-01T06:20:05;3.92;;;3.55;;
12059;SDS011;6091;51.432;6.880;2022-08-01T06:22:34;3.65;;;3.35;;
12059;SDS011;6091;51.432;6.880;2022-08-01T06:25:01;3.42;;;3.13;;
12059;SDS011;6091;51.432;6.880;2022-08-01T06:27:29;9.25;;;8.07;;
12059;SDS011;6091;51.432;6.880;2022-08-01T06:29:56;6.38;;;4.57;;
12059;SDS011;6091;51.432;6.880;2022-08-01T06:32:23;3.60;;;3.30;;
12059;SDS011;6091;51.432;6.880;2022-08-01T06:34:52;3.72;;;3.42;;
12059;SDS011;6091;51.432;6.880;2022-08-01T06:37:21;3.58;;;3.28;;
12059;SDS011;6091;51.432;6.880;2022-08-01T06:39:49;3.95;;;3.53;;
12059;SDS011;6091;51.432;6.880;2022-08-01T06:42:16;3.38;;;3.08;;
12059;SDS011;6091;51.432;6.880;2022-08-01T06:44:44;3.13;;;2.92;;
12059;SDS011;6091;51.432;6.880;2022-08-01T06:47:11;3.25;;;2.72;;
12059;SDS011;6091;51.432;6.880;2022-08-01T06:49:38;2.88;;;2.45;;
12059;SDS011;6091;51.432;6.880;2022-08-01T06:52:05;3.63;;;2.83;;
12059;SDS011;6091;51.432;6.880;2022-08-01T06:54:33;3.45;;;3.17;;
12059;SDS011;6091;51.432;6.880;2022-08-01T06:57:00;3.53;;;3.22;;
12059;SDS011;6091;51.432;6.880;2022-08-01T06:59:31;2.85;;;2.65;;
12059;SDS011;6091;51.432;6.880;2022-08-01T07:01:59;3.63;;;3.33;;
12059;SDS011;6091;51.432;6.880;2022-08-01T07:04:27;2.88;;;2.67;;
12059;SDS011;6091;51.432;6.880;2022-08-01T07:06:54;3.05;;;2.80;;
12059;SDS011;6091;51.432;6.880;2022-08-01T07:09:21;2.97;;;2.63;;
12059;SDS011;6091;51.432;6.880;2022-08-01T07:11:48;3.05;;;2.47;;
12059;SDS011;6091;51.432;6.880;2022-08-01T07:14:18;2.80;;;2.60;;
12059;SDS011;6091;51.432;6.880;2022-08-01T07:16:46;2.60;;;2.40;;
12059;SDS011;6091;51.432;6.880;2022-08-01T07:19:13;3.10;;;2.58;;
12059;SDS011;6091;51.432;6.880;2022-08-01T07:21:41;2.92;;;2.67;;
12059;SDS011;6091;51.432;6.880;2022-08-01T07:24:11;2.88;;;2.67;;
12059;SDS011;6091;51.432;6.880;2022-08-01T07:26:47;2.47;;;2.28;;
12059;SDS011;6091;51.432;6.880;2022-08-01T07:29:20;3.15;;;2.28;;
12059;SDS011;6091;51.432;6.880;2022-08-01T07:31:49;3.85;;;2.15;;
12059;SDS011;6091;51.432;6.880;2022-08-01T07:34:20;2.95;;;2.30;;
12059;SDS011;6091;51.432;6.880;2022-08-01T07:36:49;3.38;;;2.28;;
12059;SDS011;6091;51.432;6.880;2022-08-01T07:39:17;3.03;;;2.58;;
12059;SDS011;6091;51.432;6.880;2022-08-01T07:41:45;3.83;;;2.25;;
12059;SDS011;6091;51.432;6.880;2022-08-01T07:44:33;4.32;;;2.25;;
12059;SDS011;6091;51.432;6.880;2022-08-01T07:47:00;3.53;;;2.28;;
12059;SDS011;6091;51.432;6.880;2022-08-01T07:49:28;3.60;;;2.58;;
12059;SDS011;6091;51.432;6.880;2022-08-01T07:51:55;3.03;;;2.53;;
12059;SDS011;6091;51.432;6.880;2022-08-01T07:54:29;2.20;;;2.10;;
12059;SDS011;6091;51.432;6.880;2022-08-01T07:57:00;2.88;;;2.47;;
12059;SDS011;6091;51.432;6.880;2022-08-01T07:59:28;2.50;;;2.30;;
12059;SDS011;6091;51.432;6.880;2022-08-01T08:01:56;4.05;;;3.40;;
12059;SDS011;6091;51.432;6.880;2022-08-01T08:04:24;2.70;;;2.50;;
12059;SDS011;6091;51.432;6.880;2022-08-01T08:06:51;3.80;;;2.20;;
12059;SDS011;6091;51.432;6.880;2022-08-01T08:09:19;2.58;;;2.38;;
12059;SDS011;6091;51.432;6.880;2022-08-01T08:11:47;2.20;;;2.00;;
12059;SDS011;6091;51.432;6.880;2022-08-01T08:14:15;3.20;;;1.98;;
12059;SDS011;6091;51.432;6.880;2022-08-01T08:16:43;3.95;;;2.15;;
12059;SDS011;6091;51.432;6.880;2022-08-01T08:19:11;2.45;;;2.17;;
12059;SDS011;6091;51.432;6.880;2022-08-01T08:21:38;2.70;;;2.10;;
12059;SDS011;6091;51.432;6.880;2022-08-01T08:24:09;2.70;;;2.50;;
12059;SDS011;6091;51.432;6.880;2022-08-01T08:26:59;2.33;;;2.13;;
12059;SDS011;6091;51.432;6.880;2022-08-01T08:29:28;2.95;;;2.15;;
12059;SDS011;6091;51.432;6.880;2022-08-01T08:31:59;3.22;;;1.98;;
12059;SDS011;6091;51.432;6.880;2022-08-01T08:34:27;1.90;;;1.80;;
12059;SDS011;6091;51.432;6.880;2022-08-01T08:36:55;2.35;;;2.15;;
12059;SDS011;6091;51.432;6.880;2022-08-01T08:39:24;2.42;;;2.22;;
12059;SDS011;6091;51.432;6.880;2022-08-01T08:41:52;2.13;;;1.98;;
12059;SDS011;6091;51.432;6.880;2022-08-01T08:44:19;2.67;;;2.08;;
12059;SDS011;6091;51.432;6.880;2022-08-01T08:46:47;1.80;;;1.70;;
12059;SDS011;6091;51.432;6.880;2022-08-01T08:49:18;1.80;;;1.70;;
12059;SDS011;6091;51.432;6.880;2022-08-01T08:51:50;1.85;;;1.70;;
12059;SDS011;6091;51.432;6.880;2022-08-01T08:54:20;1.92;;;1.65;;
12059;SDS011;6091;51.432;6.880;2022-08-01T08:56:57;1.50;;;1.40;;
12059;SDS011;6091;51.432;6.880;2022-08-01T08:59:26;1.85;;;1.60;;
12059;SDS011;6091;51.432;6.880;2022-08-01T09:01:54;1.80;;;1.70;;
12059;SDS011;6091;51.432;6.880;2022-08-01T09:04:23;1.67;;;1.58;;
12059;SDS011;6091;51.432;6.880;2022-08-01T09:06:52;1.80;;;1.70;;
12059;SDS011;6091;51.432;6.880;2022-08-01T09:09:21;2.10;;;1.90;;
12059;SDS011;6091;51.432;6.880;2022-08-01T09:11:49;2.42;;;1.73;;
12059;SDS011;6091;51.432;6.880;2022-08-01T09:14:32;1.75;;;1.50;;
12059;SDS011;6091;51.432;6.880;2022-08-01T09:17:05;1.50;;;1.40;;
12059;SDS011;6091;51.432;6.880;2022-08-01T09:19:37;2.05;;;1.83;;
12059;SDS011;6091;51.432;6.880;2022-08-01T09:22:10;1.65;;;1.52;;
12059;SDS011;6091;51.432;6.880;2022-08-01T09:25:00;7.07;;;6.38;;
12059;SDS011;6091;51.432;6.880;2022-08-01T09:27:36;4.82;;;2.78;;
12059;SDS011;6091;51.432;6.880;2022-08-01T09:41:00;1.77;;;1.67;;
12059;SDS011;6091;51.432;6.880;2022-08-01T09:43:28;2.05;;;1.80;;
12059;SDS011;6091;51.432;6.880;2022-08-01T09:45:57;1.85;;;1.73;;
12059;SDS011;6091;51.432;6.880;2022-08-01T09:48:30;1.55;;;1.42;;
12059;SDS011;6091;51.432;6.880;2022-08-01T09:50:58;1.80;;;1.70;;
12059;SDS011;6091;51.432;6.880;2022-08-01T09:53:48;2.45;;;1.80;;
12059;SDS011;6091;51.432;6.880;2022-08-01T09:56:21;1.95;;;1.42;;
12059;SDS011;6091;51.432;6.880;2022-08-01T09:58:53;2.03;;;1.65;;
12059;SDS011;6091;51.432;6.880;2022-08-01T10:01:27;2.20;;;1.50;;
12059;SDS011;6091;51.432;6.880;2022-08-01T10:04:14;1.52;;;1.42;;
12059;SDS011;6091;51.432;6.880;2022-08-01T10:06:47;1.58;;;1.48;;
12059;SDS011;6091;51.432;6.880;2022-08-01T10:09:31;1.48;;;1.38;;
12059;SDS011;6091;51.432;6.880;2022-08-01T10:12:06;1.98;;;1.58;;
12059;SDS011;6091;51.432;6.880;2022-08-01T10:14:41;1.25;;;1.25;;
12059;SDS011;6091;51.432;6.880;2022-08-01T10:17:16;1.42;;;1.33;;
12059;SDS011;6091;51.432;6.880;2022-08-01T10:19:45;1.52;;;1.42;;
12059;SDS011;6091;51.432;6.880;2022-08-01T10:22:16;2.03;;;1.85;;
12059;SDS011;6091;51.432;6.880;2022-08-01T10:24:50;1.50;;;1.40;;
12059;SDS011;6091;51.432;6.880;2022-08-01T10:27:22;1.83;;;1.30;;
12059;SDS011;6091;51.432;6.880;2022-08-01T10:30:05;1.63;;;1.52;;
12059;SDS011;6091;51.432;6.880;2022-08-01T10:32:46;1.88;;;1.42;;
12059;SDS011;6091;51.432;6.880;2022-08-01T10:35:16;2.33;;;1.60;;
12059;SDS011;6091;51.432;6.880;2022-08-01T10:38:04;2.08;;;1.85;;
12059;SDS011;6091;51.432;6.880;2022-08-01T10:40:38;1.60;;;1.50;;
12059;SDS011;6091;51.432;6.880;2022-08-01T10:43:15;1.50;;;1.40;;
12059;SDS011;6091;51.432;6.880;2022-08-01T10:45:47;1.60;;;1.50;;
12059;SDS011;6091;51.432;6.880;2022-08-01T10:48:20;1.70;;;1.60;;
12059;SDS011;6091;51.432;6.880;2022-08-01T10:51:05;1.40;;;1.30;;
12059;SDS011;6091;51.432;6.880;2022-08-01T10:53:50;2.08;;;1.70;;
12059;SDS011;6091;51.432;6.880;2022-08-01T10:56:21;1.80;;;1.70;;
12059;SDS011;6091;51.432;6.880;2022-08-01T10:59:02;1.50;;;1.40;;
12059;SDS011;6091;51.432;6.880;2022-08-01T11:01:36;2.25;;;1.40;;
12059;SDS011;6091;51.432;6.880;2022-08-01T11:04:13;1.40;;;1.30;;
12059;SDS011;6091;51.432;6.880;2022-08-01T11:06:54;1.58;;;1.48;;
12059;SDS011;6091;51.432;6.880;2022-08-01T11:09:39;1.35;;;1.25;;
12059;SDS011;6091;51.432;6.880;2022-08-01T11:12:17;1.30;;;1.15;;
12059;SDS011;6091;51.432;6.880;2022-08-01T11:17:41;1.50;;;1.40;;
12059;SDS011;6091;51.432;6.880;2022-08-01T11:20:35;1.27;;;0.95;;
12059;SDS011;6091;51.432;6.880;2022-08-01T11:28:27;1.42;;;1.02;;
12059;SDS011;6091;51.432;6.880;2022-08-01T11:41:39;1.65;;;0.90;;
12059;SDS011;6091;51.432;6.880;2022-08-01T11:47:03;1.27;;;1.17;;
12059;SDS011;6091;51.432;6.880;2022-08-01T11:52:15;1.73;;;1.08;;
12059;SDS011;6091;51.432;6.880;2022-08-01T11:57:37;1.10;;;0.98;;
12059;SDS011;6091;51.432;6.880;2022-08-01T12:00:12;0.80;;;0.80;;
12059;SDS011;6091;51.432;6.880;2022-08-01T12:02:44;1.65;;;1.05;;
12059;SDS011;6091;51.432;6.880;2022-08-01T12:05:13;1.45;;;1.10;;
12059;SDS011;6091;51.432;6.880;2022-08-01T12:07:50;1.33;;;1.10;;
12059;SDS011;6091;51.432;6.880;2022-08-01T12:10:19;2.47;;;1.10;;
12059;SDS011;6091;51.432;6.880;2022-08-01T12:13:00;1.17;;;1.08;;
12059;SDS011;6091;51.432;6.880;2022-08-01T12:15:32;1.40;;;1.30;;
12059;SDS011;6091;51.432;6.880;2022-08-01T12:18:04;1.52;;;1.10;;
12059;SDS011;6091;51.432;6.880;2022-08-01T12:20:43;2.00;;;1.23;;
12059;SDS011;6091;51.432;6.880;2022-08-01T12:23:22;2.20;;;1.50;;
12059;SDS011;6091;51.432;6.880;2022-08-01T12:25:52;2.22;;;1.40;;
12059;SDS011;6091;51.432;6.880;2022-08-01T12:28:20;1.70;;;1.42;;
12059;SDS011;6091;51.432;6.880;2022-08-01T12:30:49;1.75;;;1.65;;
12059;SDS011;6091;51.432;6.880;2022-08-01T12:33:17;1.52;;;1.40;;
12059;SDS011;6091;51.432;6.880;2022-08-01T12:35:45;3.17;;;1.52;;
12059;SDS011;6091;51.432;6.880;2022-08-01T12:38:17;2.72;;;1.23;;
12059;SDS011;6091;51.432;6.880;2022-08-01T12:40:53;2.17;;;1.40;;
12059;SDS011;6091;51.432;6.880;2022-08-01T12:43:22;1.40;;;1.20;;
12059;SDS011;6091;51.432;6.880;2022-08-01T12:45:55;3.80;;;1.20;;
12059;SDS011;6091;51.432;6.880;2022-08-01T12:48:26;2.83;;;1.60;;
12059;SDS011;6091;51.432;6.880;2022-08-01T12:50:54;2.28;;;1.40;;
12059;SDS011;6091;51.432;6.880;2022-08-01T12:53:24;2.17;;;1.27;;
12059;SDS011;6091;51.432;6.880;2022-08-01T12:56:06;1.95;;;1.40;;
12059;SDS011;6091;51.432;6.880;2022-08-01T12:58:36;2.72;;;1.40;;
12059;SDS011;6091;51.432;6.880;2022-08-01T13:01:09;2.45;;;1.65;;
12059;SDS011;6091;51.432;6.880;2022-08-01T13:03:39;3.63;;;1.55;;
12059;SDS011;6091;51.432;6.880;2022-08-01T13:06:22;2.10;;;1.55;;
12059;SDS011;6091;51.432;6.880;2022-08-01T13:08:55;1.77;;;1.20;;
12059;SDS011;6091;51.432;6.880;2022-08-01T13:11:35;2.15;;;1.25;;
12059;SDS011;6091;51.432;6.880;2022-08-01T13:14:02;1.60;;;1.50;;
12059;SDS011;6091;51.432;6.880;2022-08-01T13:16:30;1.30;;;1.20;;
12059;SDS011;6091;51.432;6.880;2022-08-01T13:19:17;1.10;;;1.00;;
12059;SDS011;6091;51.432;6.880;2022-08-01T13:21:57;1.02;;;1.02;;
12059;SDS011;6091;51.432;6.880;2022-08-01T13:24:27;1.25;;;1.08;;
12059;SDS011;6091;51.432;6.880;2022-08-01T13:26:59;2.55;;;1.10;;
12059;SDS011;6091;51.432;6.880;2022-08-01T13:32:13;1.30;;;1.20;;
12059;SDS011;6091;51.432;6.880;2022-08-01T13:35:03;1.27;;;1.00;;
12059;SDS011;6091;51.432;6.880;2022-08-01T13:37:38;1.48;;;1.10;;
12059;SDS011;6091;51.432;6.880;2022-08-01T13:40:08;2.25;;;1.45;;
12059;SDS011;6091;51.432;6.880;2022-08-01T13:42:37;3.75;;;1.63;;
12059;SDS011;6091;51.432;6.880;2022-08-01T13:45:05;3.58;;;1.85;;
12059;SDS011;6091;51.432;6.880;2022-08-01T13:47:39;3.15;;;1.42;;
12059;SDS011;6091;51.432;6.880;2022-08-01T13:50:26;2.97;;;1.90;;
12059;SDS011;6091;51.432;6.880;2022-08-01T13:52:53;2.92;;;1.63;;
12059;SDS011;6091;51.432;6.880;2022-08-01T13:55:20;3.33;;;1.20;;
12059;SDS011;6091;51.432;6.880;2022-08-01T13:57:47;2.72;;;1.48;;
12059;SDS011;6091;51.432;6.880;2022-08-01T14:00:15;2.50;;;1.67;;
12059;SDS011;6091;51.432;6.880;2022-08-01T14:02:42;2.30;;;1.70;;
12059;SDS011;6091;51.432;6.880;2022-08-01T14:05:09;2.25;;;1.40;;
12059;SDS011;6091;51.432;6.880;2022-08-01T14:07:37;5.55;;;1.77;;
12059;SDS011;6091;51.432;6.880;2022-08-01T14:10:06;4.15;;;1.60;;
12059;SDS011;6091;51.432;6.880;2022-08-01T14:12:46;4.38;;;1.30;;
12059;SDS011;6091;51.432;6.880;2022-08-01T14:15:14;3.53;;;1.42;;
12059;SDS011;6091;51.432;6.880;2022-08-01T14:18:02;4.93;;;1.63;;
12059;SDS011;6091;51.432;6.880;2022-08-01T14:20:31;5.80;;;1.90;;
12059;SDS011;6091;51.432;6.880;2022-08-01T14:22:59;3.83;;;1.67;;
12059;SDS011;6091;51.432;6.880;2022-08-01T14:25:26;5.40;;;1.88;;
12059;SDS011;6091;51.432;6.880;2022-08-01T14:28:13;3.83;;;1.58;;
12059;SDS011;6091;51.432;6.880;2022-08-01T14:30:41;3.67;;;1.85;;
12059;SDS011;6091;51.432;6.880;2022-08-01T14:33:09;2.22;;;1.35;;
12059;SDS011;6091;51.432;6.880;2022-08-01T14:35:40;2.60;;;1.40;;
12059;SDS011;6091;51.432;6.880;2022-08-01T14:38:27;1.88;;;1.58;;
12059;SDS011;6091;51.432;6.880;2022-08-01T14:40:57;1.88;;;1.35;;
12059;SDS011;6091;51.432;6.880;2022-08-01T14:43:25;4.65;;;1.25;;
12059;SDS011;6091;51.432;6.880;2022-08-01T14:45:59;1.40;;;1.30;;
12059;SDS011;6091;51.432;6.880;2022-08-01T14:48:30;2.90;;;1.30;;
12059;SDS011;6091;51.432;6.880;2022-08-01T14:50:58;2.38;;;1.20;;
12059;SDS011;6091;51.432;6.880;2022-08-01T14:53:29;3.58;;;1.50;;
12059;SDS011;6091;51.432;6.880;2022-08-01T14:56:01;2.25;;;1.23;;
12059;SDS011;6091;51.432;6.880;2022-08-01T14:58:32;2.28;;;1.33;;
12059;SDS011;6091;51.432;6.880;2022-08-01T15:01:00;2.63;;;1.35;;
12059;SDS011;6091;51.432;6.880;2022-08-01T15:03:27;1.48;;;1.35;;
12059;SDS011;6091;51.432;6.880;2022-08-01T15:05:54;1.55;;;1.33;;
12059;SDS011;6091;51.432;6.880;2022-08-01T15:08:21;1.42;;;1.25;;
12059;SDS011;6091;51.432;6.880;2022-08-01T15:10:48;1.75;;;1.60;;
12059;SDS011;6091;51.432;6.880;2022-08-01T15:13:15;1.52;;;1.30;;
12059;SDS011;6091;51.432;6.880;2022-08-01T15:15:42;3.33;;;1.50;;
12059;SDS011;6091;51.432;6.880;2022-08-01T15:18:09;4.00;;;1.65;;
12059;SDS011;6091;51.432;6.880;2022-08-01T15:20:36;2.22;;;1.35;;
12059;SDS011;6091;51.432;6.880;2022-08-01T15:23:03;2.38;;;1.60;;
12059;SDS011;6091;51.432;6.880;2022-08-01T15:25:30;2.20;;;1.73;;
12059;SDS011;6091;51.432;6.880;2022-08-01T15:28:08;1.70;;;1.60;;
12059;SDS011;6091;51.432;6.880;2022-08-01T15:30:36;2.78;;;1.63;;
12059;SDS011;6091;51.432;6.880;2022-08-01T15:33:03;2.05;;;1.70;;
12059;SDS011;6091;51.432;6.880;2022-08-01T15:35:31;2.45;;;1.98;;
12059;SDS011;6091;51.432;6.880;2022-08-01T15:37:58;1.92;;;1.50;;
12059;SDS011;6091;51.432;6.880;2022-08-01T15:40:25;1.80;;;1.52;;
12059;SDS011;6091;51.432;6.880;2022-08-01T15:42:54;1.95;;;1.70;;
12059;SDS011;6091;51.432;6.880;2022-08-01T15:45:21;2.55;;;1.48;;
12059;SDS011;6091;51.432;6.880;2022-08-01T15:48:09;1.90;;;1.45;;
12059;SDS011;6091;51.432;6.880;2022-08-01T15:50:36;1.95;;;1.30;;
12059;SDS011;6091;51.432;6.880;2022-08-01T15:53:04;1.52;;;1.33;;
12059;SDS011;6091;51.432;6.880;2022-08-01T15:55:34;1.30;;;1.20;;
12059;SDS011;6091;51.432;6.880;2022-08-01T15:58:05;1.42;;;1.33;;
12059;SDS011;6091;51.432;6.880;2022-08-01T16:00:33;0.90;;;0.90;;
12059;SDS011;6091;51.432;6.880;2022-08-01T16:03:05;1.60;;;1.13;;
12059;SDS011;6091;51.432;6.880;2022-08-01T16:05:33;1.30;;;1.20;;
12059;SDS011;6091;51.432;6.880;2022-08-01T16:08:09;1.30;;;1.17;;
12059;SDS011;6091;51.432;6.880;2022-08-01T16:10:39;1.35;;;1.20;;
12059;SDS011;6091;51.432;6.880;2022-08-01T16:13:08;1.30;;;1.20;;
12059;SDS011;6091;51.432;6.880;2022-08-01T16:15:36;1.20;;;1.10;;
12059;SDS011;6091;51.432;6.880;2022-08-01T16:18:05;1.60;;;1.00;;